Cayley, Canada
Current Conditions -  °F | °C
As of 3:00 PM on Thursday 23 Oct 2014 (Local Time) from CYYC Reporting Station
Few Clouds Few Clouds  
Wind Chill: 59°   Ceiling: Unl
Heat Index: 59°   Visibility: 40mi
Dew Point: 30°   Wind: 14mph
Humidity: 34%   Direction: 280°W
Pressure: 29.56"   Gusts: 22mph
Location:  50.45°N, 113.85°W
Report Text: CYYC 232100Z 28012G19KT 40SM FEW060 FEW150 15/M01 A2956 RMK CU1AC1 CU TR SLP021 DENSITY ALT 4800FT
Loading
Personal Weather Stations






























Interactive Weather Map
Tropical Storm Tracking
New forecast layout! Learn more

10-Day Weather Forecast

Advertisements
Track Severe Weather on mobile